Latest Weather Observations for Cape Bruny AWS

IDT60901

Issued at 5:45 pm EST Friday 19 September 2014 (issued every 10 minutes, with the page automatically refreshed every 10 minutes)

About weather observations | Map of Hobart area stations | Latest observations for Hobart area | Other Formats
Station Details ID: 094198 Name: CAPE BRUNY (CAPE BRUNY) Lat: -43.49 Lon: 147.14 Height: 59.7 m
Data from the previous 72 hours. | See also: Recent months at Cape Bruny AWS
Date/Time
EST
Tmp

°C
App
Tmp
°C
Dew
Point
°C
Rel
Hum
%
Delta-T

°C
Wind Press
QNH
hPa
Press
MSL
hPa
Rain
since
9 am
mm
Dir
 
Spd
km/h
Gust
km/h
Spd
kts
Gust
kts
19/05:33pm 10.4 1.7 8.3 87 1.0 WSW 44 65 24 35 1016.2 1016.3 0.4
19/05:30pm 10.5 2.3 8.4 87 1.0 W 41 54 22 29 1016.3 1016.4 0.2
19/05:00pm 10.0 3.3 8.3 89 0.8 W 33 46 18 25 1016.0 1016.1 0.2
19/04:30pm 10.1 2.6 8.0 87 1.0 W 37 59 20 32 1015.8 1015.9 0.2
19/04:06pm 10.3 1.3 6.5 77 1.8 W 43 61 23 33 1015.6 1015.7 0.2
19/04:00pm 10.6 1.7 6.9 78 1.8 W 43 56 23 30 1015.5 1015.6 0.2
19/03:30pm 10.0 -0.7 7.9 87 1.0 WSW 54 61 29 33 1015.8 1015.9 0.2
19/03:06pm 10.6 -0.1 6.6 76 1.9 W 52 70 28 38 1015.3 1015.4 0.2
19/03:00pm 10.8 0.9 6.6 75 2.0 W 48 65 26 35 1015.2 1015.3 0.2
19/02:57pm 11.1 1.6 6.5 73 2.2 W 46 65 25 35 1015.2 1015.3 0.2
19/02:30pm 11.1 0.4 6.3 72 2.3 W 52 67 28 36 1015.0 1015.1 0.2
19/02:03pm 12.0 0.1 5.4 64 3.1 W 57 76 31 41 1015.0 1015.1 0.2
19/02:00pm 11.8 -0.6 4.8 62 3.2 W 59 76 32 41 1015.0 1015.1 0.2
19/01:30pm 12.8 1.1 5.5 61 3.4 W 56 74 30 40 1014.6 1014.7 0.2
19/01:04pm 12.3 0.1 5.5 63 3.2 W 59 78 32 42 1014.6 1014.7 0.2
19/01:00pm 11.8 -0.9 5.2 64 3.0 W 61 78 33 42 1014.7 1014.8 0.2
19/12:36pm 12.4 0.2 5.8 64 3.1 W 59 78 32 42 1014.6 1014.7 0.2
19/12:30pm 12.5 0.0 6.1 65 3.0 W 61 74 33 40 1014.7 1014.8 0.2
19/12:00pm 11.3 0.1 5.8 69 2.6 W 54 74 29 40 1014.8 1014.9 0.2
19/11:30am 10.8 -0.1 5.6 70 2.4 W 52 72 28 39 1015.1 1015.2 0.2
19/11:00am 11.4 0.0 6.9 74 2.1 W 56 74 30 40 1015.2 1015.3 0.2
19/10:30am 10.4 -1.0 6.7 78 1.7 W 56 78 30 42 1014.9 1015.0 0.2
19/10:09am 10.4 0.7 7.5 82 1.4 W 48 69 26 37 1015.0 1015.1 0.2
19/10:00am 10.5 1.2 7.7 83 1.3 W 46 61 25 33 1014.9 1015.0 0.2
19/09:30am 10.1 0.5 7.9 86 1.1 W 48 61 26 33 1015.1 1015.2 0.0
19/09:00am 9.4 -0.1 8.2 92 0.6 WSW 48 61 26 33 1015.3 1015.4 9.8
19/08:38am 9.8 0.7 8.4 91 0.7 W 46 65 25 35 1015.1 1015.2 9.8
19/08:30am 9.5 -1.6 8.1 91 0.7 WSW 56 69 30 37 1015.0 1015.1 9.8
19/08:21am 9.4 0.2 8.0 91 0.7 WSW 46 65 25 35 1015.0 1015.1 9.6
19/08:00am 9.5 -0.8 8.1 91 0.7 WSW 52 65 28 35 1014.9 1015.0 9.6
19/07:30am 9.3 -0.7 7.9 91 0.7 WSW 50 69 27 37 1014.7 1014.8 9.4
19/07:00am 9.5 -0.5 7.9 90 0.8 WSW 50 69 27 37 1014.4 1014.5 8.8
19/06:30am 9.1 -1.0 7.4 89 0.8 WSW 50 69 27 37 1014.1 1014.2 8.6
19/06:29am 9.2 -0.9 7.5 89 0.8 WSW 50 69 27 37 1014.1 1014.2 8.6
19/06:00am 9.6 -1.5 7.9 89 0.8 W 56 70 30 38 1013.7 1013.8 8.2
19/05:30am 9.1 -1.0 7.5 90 0.8 WSW 50 72 27 39 1013.6 1013.7 7.8
19/05:04am 10.1 -1.0 7.9 86 1.1 WSW 56 74 30 40 1013.1 1013.2 7.4
19/05:00am 9.8 -1.6 7.4 85 1.1 WSW 57 74 31 40 1013.1 1013.2 7.4
19/04:31am 10.3 -0.7 6.8 79 1.7 WSW 54 76 29 41 1012.8 1012.9 7.4
19/04:30am 10.4 -0.5 7.1 80 1.6 WSW 54 70 29 38 1012.8 1012.9 7.4
19/04:02am 10.2 -1.6 7.6 84 1.2 WSW 59 78 32 42 1012.6 1012.7 7.4
19/04:00am 10.2 -1.9 7.8 85 1.2 WSW 61 76 33 41 1012.6 1012.7 7.4
19/03:30am 9.7 -2.9 7.3 85 1.1 WSW 63 82 34 44 1012.4 1012.5 7.4
19/03:00am 10.1 -1.6 8.0 87 1.0 W 59 83 32 45 1012.4 1012.5 7.4
19/02:30am 9.7 -2.8 7.5 86 1.1 WSW 63 82 34 44 1012.2 1012.3 7.2
19/02:00am 9.8 -2.2 8.1 89 0.8 W 61 87 33 47 1012.0 1012.1 7.2
19/01:30am 9.8 -0.8 8.4 91 0.7 W 54 76 29 41 1012.5 1012.6 7.2
19/01:00am 9.4 0.2 8.0 91 0.7 W 46 65 25 35 1012.6 1012.7 6.8
19/12:52am 9.5 -0.5 7.9 90 0.8 W 50 69 27 37 1012.7 1012.8 6.6
19/12:30am 9.5 -1.7 7.6 88 0.9 W 56 69 30 37 1012.8 1012.9 5.8
19/12:10am 9.5 -0.5 7.8 89 0.8 W 50 69 27 37 1013.0 1013.1 5.8
19/12:00am 9.6 0.4 7.9 89 0.8 W 46 63 25 34 1013.0 1013.1 5.6
 
Date/Time
EST
Tmp

°C
App
Tmp
°C
Dew
Point
°C
Rel
Hum
%
Delta-T

°C
Wind Press
QNH
hPa
Press
MSL
hPa
Rain
since
9 am
mm
Dir
 
Spd
km/h
Gust
km/h
Spd
kts
Gust
kts
18/11:30pm 9.1 -1.5 7.1 87 0.9 W 52 63 28 34 1013.0 1013.1 5.4
18/11:14pm 8.9 -1.3 7.0 88 0.9 W 50 69 27 37 1013.2 1013.3 5.4
18/11:00pm 9.3 -0.1 7.1 86 1.0 W 46 61 25 33 1013.2 1013.3 4.8
18/10:38pm 8.8 1.3 6.2 84 1.2 W 35 56 19 30 1013.6 1013.7 4.6
18/10:30pm 8.8 1.3 6.1 83 1.2 W 35 39 19 21 1013.6 1013.7 4.2
18/10:00pm 9.2 1.7 6.1 81 1.4 W 35 50 19 27 1014.0 1014.1 3.8
18/09:30pm 9.9 1.1 5.7 75 1.9 W 41 50 22 27 1014.2 1014.3 3.8
18/09:00pm 9.6 1.7 6.1 79 1.6 W 37 46 20 25 1014.4 1014.5 3.8
18/08:54pm 9.5 1.2 6.0 79 1.6 W 39 57 21 31 1014.4 1014.5 3.8
18/08:30pm 9.1 0.5 6.7 85 1.1 W 41 54 22 29 1014.5 1014.6 3.8
18/08:00pm 8.7 -0.8 6.5 86 1.0 W 46 69 25 37 1014.7 1014.8 3.8
18/07:56pm 9.2 0.6 6.6 84 1.2 W 41 61 22 33 1014.7 1014.8 3.6
18/07:30pm 9.4 0.6 5.6 77 1.7 W 41 52 22 28 1014.7 1014.8 3.6
18/07:00pm 8.3 0.0 6.3 87 0.9 WSW 39 54 21 29 1014.8 1014.9 3.6
18/06:54pm 8.8 0.9 6.1 83 1.2 SW 37 50 20 27 1014.9 1015.0 3.4
18/06:32pm 9.7 2.1 5.9 77 1.8 W 35 54 19 29 1014.7 1014.8 3.4
18/06:30pm 9.7 1.7 5.7 76 1.8 W 37 54 20 29 1014.7 1014.8 3.4
18/06:00pm 9.5 0.6 5.3 75 1.9 W 41 52 22 28 1014.5 1014.6 3.4
18/05:30pm 9.8 0.4 5.4 74 2.0 W 44 56 24 30 1014.3 1014.4 3.4
18/05:00pm 10.1 -0.5 5.3 72 2.2 WSW 50 69 27 37 1014.1 1014.2 3.4
18/04:44pm 9.8 -0.2 4.4 69 2.4 WSW 46 65 25 35 1014.0 1014.1 3.4
18/04:30pm 9.9 0.1 5.3 73 2.1 WSW 46 59 25 32 1013.9 1014.0 3.4
18/04:00pm 10.8 1.3 6.6 75 2.0 WSW 46 65 25 35 1013.6 1013.7 3.4
18/03:33pm 9.8 -0.2 6.0 77 1.8 W 48 67 26 36 1013.5 1013.6 3.4
18/03:30pm 9.9 -0.6 5.5 74 2.0 W 50 67 27 36 1013.5 1013.6 3.4
18/03:00pm 9.9 -0.7 5.3 73 2.1 WSW 50 61 27 33 1013.4 1013.5 3.4
18/02:30pm 9.5 -2.1 6.0 79 1.6 W 56 74 30 40 1013.3 1013.4 3.4
18/02:08pm 8.2 -3.0 4.2 76 1.7 WSW 52 70 28 38 1013.3 1013.4 3.4
18/02:00pm 8.1 -2.2 4.9 80 1.4 WSW 48 65 26 35 1013.4 1013.5 3.4
18/01:47pm 9.0 -0.1 6.1 82 1.3 W 43 61 23 33 1013.3 1013.4 3.4
18/01:30pm 9.0 0.1 6.8 86 1.0 W 43 56 23 30 1013.3 1013.4 3.4
18/01:00pm 7.0 -2.2 5.6 91 0.6 W 43 56 23 30 1013.7 1013.8 3.2
18/12:30pm 6.6 -2.8 4.3 85 1.0 W 43 65 23 35 1014.0 1014.1 1.2
18/12:00pm 8.0 -3.5 4.4 78 1.6 W 54 76 29 41 1013.5 1013.6 0.0
18/11:57am 8.1 -4.0 4.1 76 1.7 W 57 76 31 41 1013.5 1013.6 0.0
18/11:55am 8.4 -4.5 4.0 74 1.9 W 61 76 33 41 1013.4 1013.5 0.0
18/11:53am 8.8 0.8 3.6 70 2.3 W 35 61 19 33 1013.5 1013.6 0.0
18/11:30am 9.3 0.6 4.1 70 2.3 W 39 48 21 26 1013.9 1014.0 0.0
18/11:09am 9.5 1.5 3.9 68 2.5 WSW 35 57 19 31 1014.3 1014.4 0.0
18/11:00am 10.2 3.3 4.6 68 2.5 WSW 30 39 16 21 1014.5 1014.6 0.0
18/10:43am 9.5 0.9 2.4 61 3.0 W 37 57 20 31 1014.6 1014.7 0.0
18/10:30am 9.6 1.6 3.6 66 2.6 W 35 46 19 25 1014.8 1014.9 0.0
18/10:26am 9.5 0.3 3.3 65 2.7 W 41 59 22 32 1014.8 1014.9 0.0
18/10:00am 10.6 1.1 3.9 63 3.0 W 43 56 23 30 1014.8 1014.9 0.0
18/09:30am 9.2 0.7 3.4 67 2.5 WSW 37 50 20 27 1014.9 1015.0 0.0
18/09:05am 9.2 1.1 3.2 66 2.6 WSW 35 54 19 29 1014.7 1014.8 0.0
18/09:00am 9.0 1.3 3.6 69 2.3 WSW 33 46 18 25 1014.7 1014.8 4.4
18/08:30am 7.8 -0.9 4.0 77 1.6 WSW 39 52 21 28 1015.0 1015.1 4.4
18/08:12am 8.3 -0.4 3.9 74 1.9 W 39 46 21 25 1014.6 1014.7 4.4
18/08:00am 8.5 0.6 2.1 64 2.7 SW 33 50 18 27 1014.7 1014.8 4.4
18/07:30am 7.8 -0.4 2.5 69 2.2 SW 35 50 19 27 1014.6 1014.7 4.4
18/07:00am 8.7 0.9 1.4 60 3.0 SW 32 54 17 29 1014.0 1014.1 4.2
18/06:30am 8.5 0.9 0.7 58 3.1 SW 30 50 16 27 1013.6 1013.7 4.2
18/06:00am 8.6 1.3 2.2 64 2.7 SW 30 52 16 28 1013.2 1013.3 4.2
18/05:30am 8.4 0.7 2.2 65 2.6 SW 32 50 17 27 1012.8 1012.9 4.2
18/05:00am 7.8 0.2 3.7 75 1.8 SW 33 52 18 28 1012.4 1012.5 4.2
18/04:44am 8.1 0.5 3.9 75 1.8 SW 33 52 18 28 1012.2 1012.3 4.2
18/04:30am 8.5 0.4 3.1 69 2.3 SW 35 50 19 27 1012.0 1012.1 4.2
18/04:04am 7.9 -1.2 3.8 75 1.8 SW 41 59 22 32 1011.8 1011.9 4.2
18/04:00am 8.8 -0.6 4.2 73 2.0 SW 43 59 23 32 1011.8 1011.9 4.2
18/03:30am 8.4 -1.3 3.7 72 2.0 SW 44 63 24 34 1011.5 1011.6 4.2
18/03:00am 8.8 -0.3 1.9 62 2.9 SW 39 61 21 33 1011.0 1011.1 4.2
18/02:32am 9.1 -0.6 2.9 65 2.7 SW 43 61 23 33 1010.9 1011.0 4.2
18/02:30am 9.1 -0.2 2.9 65 2.7 SW 41 57 22 31 1010.9 1011.0 4.2
18/02:01am 8.9 -0.8 2.9 66 2.6 SW 43 61 23 33 1010.6 1010.7 4.2
18/02:00am 8.9 -0.9 3.3 68 2.4 SW 44 61 24 33 1010.6 1010.7 4.2
18/01:30am 8.8 -0.9 2.8 66 2.6 SW 43 61 23 33 1010.5 1010.6 4.2
18/01:09am 8.8 -0.8 3.4 69 2.3 SW 43 61 23 33 1010.4 1010.5 4.2
18/01:00am 8.8 -1.9 2.4 64 2.7 SW 48 61 26 33 1010.3 1010.4 4.2
18/12:34am 8.8 0.0 5.4 79 1.5 SW 41 63 22 34 1009.9 1010.0 4.2
18/12:30am 8.6 -0.3 5.2 79 1.5 SW 41 57 22 31 1009.7 1009.7 4.2
18/12:00am 8.8 -0.5 5.9 82 1.3 SW 44 65 24 35 1009.5 1009.5 4.0
 
Date/Time
EST
Tmp

°C
App
Tmp
°C
Dew
Point
°C
Rel
Hum
%
Delta-T

°C
Wind Press
QNH
hPa
Press
MSL
hPa
Rain
since
9 am
mm
Dir
 
Spd
km/h
Gust
km/h
Spd
kts
Gust
kts
17/11:35pm 8.3 -1.0 5.8 84 1.1 SW 44 63 24 34 1009.2 1009.2 4.0
17/11:30pm 8.5 -1.6 5.8 83 1.2 SW 48 65 26 35 1009.0 1009.0 4.0
17/11:00pm 8.3 -2.5 5.8 84 1.1 SW 52 72 28 39 1008.5 1008.5 3.8
17/10:30pm 8.0 -0.3 6.0 87 0.9 SW 39 59 21 32 1008.1 1008.1 3.2
17/10:02pm 7.8 -0.6 5.6 86 1.0 SW 39 57 21 31 1007.7 1007.7 3.0
17/10:00pm 7.8 -0.2 5.9 88 0.9 SW 37 52 20 28 1007.6 1007.6 3.0
17/09:49pm 7.9 -0.1 5.9 87 0.9 SW 37 56 20 30 1007.5 1007.5 2.6
17/09:48pm 7.8 0.8 6.1 89 0.8 SW 32 44 17 24 1007.5 1007.5 2.6
17/09:30pm 7.4 -1.7 5.7 89 0.8 W 43 52 23 28 1007.1 1007.1 2.6
17/09:00pm 7.0 -3.4 4.0 81 1.3 W 48 65 26 35 1006.7 1006.7 2.4
17/08:35pm 6.9 -4.7 3.7 80 1.4 W 54 72 29 39 1006.5 1006.5 2.4
17/08:30pm 7.0 -5.0 3.8 80 1.4 W 56 72 30 39 1006.5 1006.5 2.4
17/08:02pm 7.9 -4.2 4.3 78 1.6 W 57 76 31 41 1006.3 1006.3 2.4
17/08:00pm 7.7 -4.9 3.6 75 1.8 W 59 76 32 41 1006.2 1006.2 2.4
17/07:30pm 8.5 -3.5 3.9 73 2.0 WSW 56 76 30 41 1005.8 1005.8 2.4
17/07:04pm 8.7 -3.4 0.9 58 3.2 W 54 72 29 39 1005.3 1005.3 2.4
17/07:00pm 8.8 -3.6 1.5 60 3.0 WSW 56 72 30 39 1005.3 1005.3 2.4
17/06:30pm 8.8 -2.7 2.4 64 2.7 WSW 52 67 28 36 1005.2 1005.2 2.4
17/06:03pm 8.8 -3.1 1.9 62 2.9 W 54 72 29 39 1005.0 1005.0 2.4
17/06:00pm 8.8 -2.7 2.2 63 2.8 W 52 69 28 37 1005.0 1005.0 2.4
17/05:30pm 9.0 -3.5 1.9 61 3.0 WSW 57 76 31 41 1004.5 1004.5 2.4
17/05:29pm 8.9 -3.6 2.3 63 2.8 WSW 57 76 31 41 1004.5 1004.5 2.4
17/05:00pm 9.1 -3.5 1.5 59 3.2 WSW 57 72 31 39 1004.2 1004.2 2.4
17/04:35pm 9.1 -2.9 1.8 60 3.0 WSW 54 72 29 39 1003.9 1003.9 2.4
17/04:30pm 9.2 -2.4 1.9 60 3.1 WSW 52 69 28 37 1003.9 1003.9 2.4
17/04:00pm 9.6 -2.2 2.9 63 2.9 WSW 54 69 29 37 1003.7 1003.7 2.4
17/03:30pm 9.0 -2.3 3.4 68 2.4 WSW 52 65 28 35 1003.3 1003.3 2.4
17/03:00pm 8.8 -3.3 3.2 68 2.4 WSW 56 70 30 38 1002.9 1002.9 2.4
17/02:30pm 8.3 -2.9 3.9 74 1.9 WSW 52 70 28 38 1002.8 1002.8 2.4
17/02:00pm 6.8 -3.9 4.5 85 1.0 WSW 50 78 27 42 1002.9 1002.9 2.4
17/01:53pm 8.3 -2.8 4.3 76 1.8 WSW 52 78 28 42 1002.7 1002.7 2.0
17/01:30pm 8.3 -0.6 4.9 79 1.5 W 41 59 22 32 1002.5 1002.5 2.0
17/01:00pm 7.7 -0.1 5.0 83 1.2 W 35 43 19 23 1002.7 1002.7 2.0
17/12:30pm 7.4 -0.8 5.0 85 1.1 W 37 48 20 26 1002.9 1002.9 2.0
17/12:00pm 6.8 -1.0 4.8 87 0.9 W 35 44 19 24 1003.4 1003.4 2.0
17/11:30am 6.6 -2.4 4.4 86 1.0 W 41 52 22 28 1003.4 1003.4 1.8
17/11:26am 6.4 -3.2 3.6 82 1.2 W 43 61 23 33 1003.4 1003.4 1.8
17/11:00am 6.8 -2.6 4.6 86 1.0 WSW 43 56 23 30 1003.3 1003.3 1.2
17/10:30am 7.8 0.9 4.6 80 1.4 WSW 30 41 16 22 1003.3 1003.3 0.4
17/10:00am 7.8 2.9 5.3 84 1.1 WSW 20 26 11 14 1003.2 1003.2 0.0
17/09:30am 8.0 0.8 5.1 82 1.3 WSW 32 39 17 21 1003.3 1003.3 0.0
17/09:00am 9.1 3.5 5.5 78 1.6 W 24 28 13 15 1003.6 1003.6 -
17/08:30am 8.9 4.2 5.1 77 1.7 WNW 19 24 10 13 1003.7 1003.7 -
17/08:00am 8.8 4.7 6.4 85 1.1 WNW 17 20 9 11 1003.7 1003.7 -
17/07:30am 8.5 6.4 6.6 88 0.9 WSW 7 13 4 7 1003.7 1003.7 -
17/07:00am 8.6 4.9 6.4 86 1.0 W 15 20 8 11 1004.0 1004.0 -
17/06:30am 8.5 4.0 6.3 86 1.0 NW 19 24 10 13 1004.0 1004.0 -
17/06:00am 8.4 4.2 5.9 84 1.1 NNW 17 22 9 12 1004.2 1004.2 -
17/05:30am 8.8 4.6 5.5 80 1.5 NNW 17 22 9 12 1004.2 1004.2 -
17/05:00am 9.0 5.1 5.2 77 1.7 N 15 19 8 10 1004.5 1004.5 -
17/04:30am 9.0 4.6 5.0 76 1.8 NNW 17 20 9 11 1004.6 1004.6 -
17/04:00am 8.2 4.0 5.5 83 1.2 N 17 24 9 13 1004.8 1004.8 -
17/03:30am 8.3 4.9 5.8 84 1.1 N 13 17 7 9 1005.0 1005.0 -
17/03:00am 8.1 4.3 5.6 84 1.1 N 15 17 8 9 1005.5 1005.5 0.0
17/02:30am 8.3 4.2 6.1 86 1.0 N 17 20 9 11 1005.7 1005.7 -
17/02:00am 8.1 4.0 6.2 88 0.9 N 17 19 9 10 1006.1 1006.1 -
17/01:30am 8.1 4.8 6.2 88 0.9 N 13 20 7 11 1006.5 1006.5 -
17/01:00am 8.1 4.5 6.6 90 0.7 N 15 17 8 9 1006.8 1006.8 -
17/12:30am 8.1 4.8 6.2 88 0.9 N 13 17 7 9 1007.0 1007.0 -
17/12:00am 8.5 4.9 6.6 88 0.9 N 15 17 8 9 1007.3 1007.3 -
 
Date/Time
EST
Tmp

°C
App
Tmp
°C
Dew
Point
°C
Rel
Hum
%
Delta-T

°C
Wind Press
QNH
hPa
Press
MSL
hPa
Rain
since
9 am
mm
Dir
 
Spd
km/h
Gust
km/h
Spd
kts
Gust
kts
16/11:30pm 8.1 4.8 6.2 88 0.9 N 13 17 7 9 1007.3 1007.3 -
16/11:00pm 8.3 5.0 6.3 87 0.9 N 13 17 7 9 1007.6 1007.6 -
16/10:30pm 7.9 5.2 5.5 85 1.1 NNW 9 15 5 8 1007.8 1007.8 -
16/10:00pm 8.7 7.6 4.9 77 1.7 CALM 0 0 0 0 1008.0 1008.0 -
16/09:30pm 8.7 6.4 5.6 81 1.4 WNW 7 11 4 6 1008.2 1008.2 -
16/09:00pm 9.3 6.8 6.4 82 1.3 WNW 9 11 5 6 1008.5 1008.5 0.0
16/08:30pm 9.8 6.3 7.1 83 1.3 W 15 19 8 10 1008.6 1008.6 -
16/08:00pm 9.1 5.8 4.7 74 2.0 WSW 11 13 6 7 1008.7 1008.7 -
16/07:30pm 9.2 6.3 4.8 74 2.0 WSW 9 11 5 6 1008.7 1008.7 -
16/07:00pm 9.4 6.5 4.6 72 2.1 W 9 15 5 8 1008.7 1008.7 -
16/06:30pm 9.5 7.1 4.3 70 2.3 WNW 6 7 3 4 1008.6 1008.6 -
16/06:00pm 10.2 7.7 4.6 68 2.5 W 7 9 4 5 1008.6 1008.6 -

Latest Capital City Observations: Canberra | Sydney | Melbourne | Brisbane | Adelaide | Perth | Hobart | Darwin

Other Formats:

Comma delimited format used in spreadsheet applications
http://www.bom.gov.au/fwo/IDT60901/IDT60901.95967.axf

JavaScript Object Notation format (JSON) in row-major order
http://www.bom.gov.au/fwo/IDT60901/IDT60901.95967.json